sensor_id;sensor_type;location;lat;lon;timestamp;temperature;humidity
20929;DHT22;21895;47.072;15.132;2022-11-20T00:01:22;4.50;99.90
20929;DHT22;21895;47.072;15.132;2022-11-20T00:03:55;4.40;99.90
20929;DHT22;21895;47.072;15.132;2022-11-20T00:06:23;4.40;99.90
20929;DHT22;21895;47.072;15.132;2022-11-20T00:08:53;4.40;99.90
20929;DHT22;21895;47.072;15.132;2022-11-20T00:11:23;4.40;99.90
20929;DHT22;21895;47.072;15.132;2022-11-20T00:13:53;4.50;99.90
20929;DHT22;21895;47.072;15.132;2022-11-20T00:16:24;4.50;99.90
20929;DHT22;21895;47.072;15.132;2022-11-20T00:18:52;4.50;99.90
20929;DHT22;21895;47.072;15.132;2022-11-20T00:21:22;4.50;99.90
20929;DHT22;21895;47.072;15.132;2022-11-20T00:23:51;4.50;99.90
20929;DHT22;21895;47.072;15.132;2022-11-20T00:26:21;4.50;99.90
20929;DHT22;21895;47.072;15.132;2022-11-20T00:28:51;4.50;99.90
20929;DHT22;21895;47.072;15.132;2022-11-20T00:31:20;4.50;99.90
20929;DHT22;21895;47.072;15.132;2022-11-20T00:33:46;4.50;99.90
20929;DHT22;21895;47.072;15.132;2022-11-20T00:36:21;4.40;99.90
20929;DHT22;21895;47.072;15.132;2022-11-20T00:38:56;4.50;99.90
20929;DHT22;21895;47.072;15.132;2022-11-20T00:41:25;4.50;99.90
20929;DHT22;21895;47.072;15.132;2022-11-20T00:43:54;4.50;99.90
20929;DHT22;21895;47.072;15.132;2022-11-20T00:46:23;4.50;99.90
20929;DHT22;21895;47.072;15.132;2022-11-20T00:48:51;4.50;99.90
20929;DHT22;21895;47.072;15.132;2022-11-20T00:51:20;4.40;99.90
20929;DHT22;21895;47.072;15.132;2022-11-20T00:53:48;4.50;99.90
20929;DHT22;21895;47.072;15.132;2022-11-20T00:56:16;4.50;99.90
20929;DHT22;21895;47.072;15.132;2022-11-20T00:58:47;4.50;99.90
20929;DHT22;21895;47.072;15.132;2022-11-20T01:01:18;4.50;99.90
20929;DHT22;21895;47.072;15.132;2022-11-20T01:03:53;4.50;99.90
20929;DHT22;21895;47.072;15.132;2022-11-20T01:06:29;4.40;99.90
20929;DHT22;21895;47.072;15.132;2022-11-20T01:09:06;4.40;99.90
20929;DHT22;21895;47.072;15.132;2022-11-20T01:11:38;4.40;99.90
20929;DHT22;21895;47.072;15.132;2022-11-20T01:14:09;4.40;99.90
20929;DHT22;21895;47.072;15.132;2022-11-20T01:16:44;4.40;99.90
20929;DHT22;21895;47.072;15.132;2022-11-20T01:19:15;4.40;99.90
20929;DHT22;21895;47.072;15.132;2022-11-20T01:21:49;4.40;99.90
20929;DHT22;21895;47.072;15.132;2022-11-20T01:24:19;4.40;99.90
20929;DHT22;21895;47.072;15.132;2022-11-20T01:26:49;4.40;99.90
20929;DHT22;21895;47.072;15.132;2022-11-20T01:29:19;4.30;99.90
20929;DHT22;21895;47.072;15.132;2022-11-20T01:31:48;4.30;99.90
20929;DHT22;21895;47.072;15.132;2022-11-20T01:34:17;4.30;99.90
20929;DHT22;21895;47.072;15.132;2022-11-20T01:36:45;4.30;99.90
20929;DHT22;21895;47.072;15.132;2022-11-20T01:39:18;4.30;99.90
20929;DHT22;21895;47.072;15.132;2022-11-20T01:41:51;4.30;99.90
20929;DHT22;21895;47.072;15.132;2022-11-20T01:44:49;4.40;99.90
20929;DHT22;21895;47.072;15.132;2022-11-20T01:47:43;4.30;99.90
20929;DHT22;21895;47.072;15.132;2022-11-20T01:50:16;4.30;99.90
20929;DHT22;21895;47.072;15.132;2022-11-20T01:53:01;4.40;99.90
20929;DHT22;21895;47.072;15.132;2022-11-20T01:55:41;4.40;99.90
20929;DHT22;21895;47.072;15.132;2022-11-20T01:58:14;4.50;99.90
20929;DHT22;21895;47.072;15.132;2022-11-20T02:00:42;4.50;99.90
20929;DHT22;21895;47.072;15.132;2022-11-20T02:03:12;4.50;99.90
20929;DHT22;21895;47.072;15.132;2022-11-20T02:07:15;4.50;99.90
20929;DHT22;21895;47.072;15.132;2022-11-20T02:09:43;4.50;99.90
20929;DHT22;21895;47.072;15.132;2022-11-20T02:12:10;4.50;99.90
20929;DHT22;21895;47.072;15.132;2022-11-20T02:16:23;4.50;99.90
20929;DHT22;21895;47.072;15.132;2022-11-20T02:19:01;4.40;99.90
20929;DHT22;21895;47.072;15.132;2022-11-20T02:21:46;4.40;99.90
20929;DHT22;21895;47.072;15.132;2022-11-20T02:27:23;4.50;99.90
20929;DHT22;21895;47.072;15.132;2022-11-20T02:30:00;4.40;99.90
20929;DHT22;21895;47.072;15.132;2022-11-20T02:32:32;4.40;99.90
20929;DHT22;21895;47.072;15.132;2022-11-20T02:35:45;4.40;99.90
20929;DHT22;21895;47.072;15.132;2022-11-20T02:38:12;4.50;99.90
20929;DHT22;21895;47.072;15.132;2022-11-20T02:40:40;4.50;99.90
20929;DHT22;21895;47.072;15.132;2022-11-20T02:43:07;4.50;99.90
20929;DHT22;21895;47.072;15.132;2022-11-20T02:45:34;4.50;99.90
20929;DHT22;21895;47.072;15.132;2022-11-20T02:48:00;4.40;99.90
20929;DHT22;21895;47.072;15.132;2022-11-20T02:50:27;4.40;99.90
20929;DHT22;21895;47.072;15.132;2022-11-20T02:52:53;4.40;99.90
20929;DHT22;21895;47.072;15.132;2022-11-20T02:55:20;4.40;99.90
20929;DHT22;21895;47.072;15.132;2022-11-20T02:57:46;4.40;99.90
20929;DHT22;21895;47.072;15.132;2022-11-20T03:00:13;4.40;99.90
20929;DHT22;21895;47.072;15.132;2022-11-20T03:02:40;4.40;99.90
20929;DHT22;21895;47.072;15.132;2022-11-20T03:05:07;4.40;99.90
20929;DHT22;21895;47.072;15.132;2022-11-20T03:07:34;4.40;99.90
20929;DHT22;21895;47.072;15.132;2022-11-20T03:10:00;4.40;99.90
20929;DHT22;21895;47.072;15.132;2022-11-20T03:12:27;4.40;99.90
20929;DHT22;21895;47.072;15.132;2022-11-20T03:14:53;4.50;99.90
20929;DHT22;21895;47.072;15.132;2022-11-20T03:17:20;4.40;99.90
20929;DHT22;21895;47.072;15.132;2022-11-20T03:19:46;4.20;99.90
20929;DHT22;21895;47.072;15.132;2022-11-20T03:22:13;4.20;99.90
20929;DHT22;21895;47.072;15.132;2022-11-20T03:24:39;4.20;99.90
20929;DHT22;21895;47.072;15.132;2022-11-20T03:27:06;4.30;99.90
20929;DHT22;21895;47.072;15.132;2022-11-20T03:29:32;4.30;99.90
20929;DHT22;21895;47.072;15.132;2022-11-20T03:31:58;4.40;99.90
20929;DHT22;21895;47.072;15.132;2022-11-20T03:34:25;4.40;99.90
20929;DHT22;21895;47.072;15.132;2022-11-20T03:36:51;4.40;99.90
20929;DHT22;21895;47.072;15.132;2022-11-20T03:39:18;4.40;99.90
20929;DHT22;21895;47.072;15.132;2022-11-20T03:41:45;4.50;99.90
20929;DHT22;21895;47.072;15.132;2022-11-20T03:44:12;4.50;99.90
20929;DHT22;21895;47.072;15.132;2022-11-20T03:46:38;4.50;99.90
20929;DHT22;21895;47.072;15.132;2022-11-20T03:49:05;4.50;99.90
20929;DHT22;21895;47.072;15.132;2022-11-20T03:51:34;4.50;99.90
20929;DHT22;21895;47.072;15.132;2022-11-20T03:54:07;4.50;99.90
20929;DHT22;21895;47.072;15.132;2022-11-20T03:56:36;4.50;99.90
20929;DHT22;21895;47.072;15.132;2022-11-20T03:59:05;4.50;99.90
20929;DHT22;21895;47.072;15.132;2022-11-20T04:01:34;4.40;99.90
20929;DHT22;21895;47.072;15.132;2022-11-20T04:04:03;4.40;99.90
20929;DHT22;21895;47.072;15.132;2022-11-20T04:06:35;4.40;99.90
20929;DHT22;21895;47.072;15.132;2022-11-20T04:09:04;4.40;99.90
20929;DHT22;21895;47.072;15.132;2022-11-20T04:11:32;4.50;99.90
20929;DHT22;21895;47.072;15.132;2022-11-20T04:14:02;4.40;99.90
20929;DHT22;21895;47.072;15.132;2022-11-20T04:16:34;4.50;99.90
20929;DHT22;21895;47.072;15.132;2022-11-20T04:19:03;4.50;99.90
20929;DHT22;21895;47.072;15.132;2022-11-20T04:21:32;4.50;99.90
20929;DHT22;21895;47.072;15.132;2022-11-20T04:23:58;4.40;99.90
20929;DHT22;21895;47.072;15.132;2022-11-20T04:26:27;4.30;99.90
20929;DHT22;21895;47.072;15.132;2022-11-20T04:28:55;4.30;99.90
20929;DHT22;21895;47.072;15.132;2022-11-20T04:31:24;4.30;99.90
20929;DHT22;21895;47.072;15.132;2022-11-20T04:33:53;4.20;99.90
20929;DHT22;21895;47.072;15.132;2022-11-20T04:36:24;4.30;99.90
20929;DHT22;21895;47.072;15.132;2022-11-20T04:38:53;4.30;99.90
20929;DHT22;21895;47.072;15.132;2022-11-20T04:41:25;4.20;99.90
20929;DHT22;21895;47.072;15.132;2022-11-20T04:43:55;4.10;99.90
20929;DHT22;21895;47.072;15.132;2022-11-20T04:46:26;4.10;99.90
20929;DHT22;21895;47.072;15.132;2022-11-20T04:48:53;4.10;99.90
20929;DHT22;21895;47.072;15.132;2022-11-20T04:51:20;4.00;99.90
20929;DHT22;21895;47.072;15.132;2022-11-20T04:53:46;4.10;99.90
20929;DHT22;21895;47.072;15.132;2022-11-20T04:56:13;4.10;99.90
20929;DHT22;21895;47.072;15.132;2022-11-20T04:58:40;4.20;99.90
20929;DHT22;21895;47.072;15.132;2022-11-20T05:01:13;4.20;99.90
20929;DHT22;21895;47.072;15.132;2022-11-20T05:03:48;4.30;99.90
20929;DHT22;21895;47.072;15.132;2022-11-20T05:06:17;4.30;99.90
20929;DHT22;21895;47.072;15.132;2022-11-20T05:08:46;4.30;99.90
20929;DHT22;21895;47.072;15.132;2022-11-20T05:11:16;4.30;99.90
20929;DHT22;21895;47.072;15.132;2022-11-20T05:13:44;4.30;99.90
20929;DHT22;21895;47.072;15.132;2022-11-20T05:16:13;4.40;99.90
20929;DHT22;21895;47.072;15.132;2022-11-20T05:18:42;4.40;99.90
20929;DHT22;21895;47.072;15.132;2022-11-20T05:21:10;4.30;99.90
20929;DHT22;21895;47.072;15.132;2022-11-20T05:23:38;4.20;99.90
20929;DHT22;21895;47.072;15.132;2022-11-20T05:26:06;4.20;99.90
20929;DHT22;21895;47.072;15.132;2022-11-20T05:28:34;4.10;99.90
20929;DHT22;21895;47.072;15.132;2022-11-20T05:31:08;4.00;99.90
20929;DHT22;21895;47.072;15.132;2022-11-20T05:33:36;4.10;99.90
20929;DHT22;21895;47.072;15.132;2022-11-20T05:36:05;4.20;99.90
20929;DHT22;21895;47.072;15.132;2022-11-20T05:38:32;4.20;99.90
20929;DHT22;21895;47.072;15.132;2022-11-20T05:41:07;4.30;99.90
20929;DHT22;21895;47.072;15.132;2022-11-20T05:43:37;4.30;99.90
20929;DHT22;21895;47.072;15.132;2022-11-20T05:46:06;4.30;99.90
20929;DHT22;21895;47.072;15.132;2022-11-20T05:48:35;4.20;99.90
20929;DHT22;21895;47.072;15.132;2022-11-20T05:51:04;4.20;99.90
20929;DHT22;21895;47.072;15.132;2022-11-20T05:53:33;4.20;99.90
20929;DHT22;21895;47.072;15.132;2022-11-20T05:56:09;4.20;99.90
20929;DHT22;21895;47.072;15.132;2022-11-20T05:58:37;4.20;99.90
20929;DHT22;21895;47.072;15.132;2022-11-20T06:01:14;4.20;99.90
20929;DHT22;21895;47.072;15.132;2022-11-20T06:03:43;4.20;99.90
20929;DHT22;21895;47.072;15.132;2022-11-20T06:06:14;4.30;99.90
20929;DHT22;21895;47.072;15.132;2022-11-20T06:08:41;4.30;99.90
20929;DHT22;21895;47.072;15.132;2022-11-20T06:11:10;4.30;99.90
20929;DHT22;21895;47.072;15.132;2022-11-20T06:13:37;4.30;99.90
20929;DHT22;21895;47.072;15.132;2022-11-20T06:16:09;4.30;99.90
20929;DHT22;21895;47.072;15.132;2022-11-20T06:18:36;4.30;99.90
20929;DHT22;21895;47.072;15.132;2022-11-20T06:21:14;4.40;99.90
20929;DHT22;21895;47.072;15.132;2022-11-20T06:23:42;4.40;99.90
20929;DHT22;21895;47.072;15.132;2022-11-20T06:26:14;4.40;99.90
20929;DHT22;21895;47.072;15.132;2022-11-20T06:28:42;4.40;99.90
20929;DHT22;21895;47.072;15.132;2022-11-20T06:31:11;4.40;99.90
20929;DHT22;21895;47.072;15.132;2022-11-20T06:33:39;4.50;99.90
20929;DHT22;21895;47.072;15.132;2022-11-20T06:36:06;4.40;99.90
20929;DHT22;21895;47.072;15.132;2022-11-20T06:38:37;4.30;99.90
20929;DHT22;21895;47.072;15.132;2022-11-20T06:41:05;4.40;99.90
20929;DHT22;21895;47.072;15.132;2022-11-20T06:43:38;4.40;99.90
20929;DHT22;21895;47.072;15.132;2022-11-20T06:46:05;4.40;99.90
20929;DHT22;21895;47.072;15.132;2022-11-20T06:48:32;4.40;99.90
20929;DHT22;21895;47.072;15.132;2022-11-20T06:50:59;4.40;99.90
20929;DHT22;21895;47.072;15.132;2022-11-20T06:53:25;4.50;99.90
20929;DHT22;21895;47.072;15.132;2022-11-20T06:55:52;4.60;99.90
20929;DHT22;21895;47.072;15.132;2022-11-20T06:58:22;4.60;99.90
20929;DHT22;21895;47.072;15.132;2022-11-20T07:00:49;4.70;99.90
20929;DHT22;21895;47.072;15.132;2022-11-20T07:03:15;4.60;99.90
20929;DHT22;21895;47.072;15.132;2022-11-20T07:05:42;4.70;99.90
20929;DHT22;21895;47.072;15.132;2022-11-20T07:08:08;4.70;99.90
20929;DHT22;21895;47.072;15.132;2022-11-20T07:10:35;4.50;99.90
20929;DHT22;21895;47.072;15.132;2022-11-20T07:13:02;4.50;99.90
20929;DHT22;21895;47.072;15.132;2022-11-20T07:15:28;4.60;99.90
20929;DHT22;21895;47.072;15.132;2022-11-20T07:17:58;4.50;99.90
20929;DHT22;21895;47.072;15.132;2022-11-20T07:20:25;4.50;99.90
20929;DHT22;21895;47.072;15.132;2022-11-20T07:22:57;4.60;99.90
20929;DHT22;21895;47.072;15.132;2022-11-20T07:25:26;4.50;99.90
20929;DHT22;21895;47.072;15.132;2022-11-20T07:27:59;4.50;99.90
20929;DHT22;21895;47.072;15.132;2022-11-20T07:30:28;4.70;99.90
20929;DHT22;21895;47.072;15.132;2022-11-20T07:32:55;4.80;99.90
20929;DHT22;21895;47.072;15.132;2022-11-20T07:35:23;4.80;99.90
20929;DHT22;21895;47.072;15.132;2022-11-20T07:37:50;4.70;99.90
20929;DHT22;21895;47.072;15.132;2022-11-20T07:40:17;4.70;99.90
20929;DHT22;21895;47.072;15.132;2022-11-20T07:42:51;4.80;99.90
20929;DHT22;21895;47.072;15.132;2022-11-20T07:45:19;4.80;99.90
20929;DHT22;21895;47.072;15.132;2022-11-20T07:47:48;4.80;99.90
20929;DHT22;21895;47.072;15.132;2022-11-20T07:50:15;4.70;99.90
20929;DHT22;21895;47.072;15.132;2022-11-20T07:52:42;4.80;99.90
20929;DHT22;21895;47.072;15.132;2022-11-20T07:55:10;4.90;99.90
20929;DHT22;21895;47.072;15.132;2022-11-20T07:57:36;5.00;99.90
20929;DHT22;21895;47.072;15.132;2022-11-20T08:00:05;5.00;99.90
20929;DHT22;21895;47.072;15.132;2022-11-20T08:02:40;5.00;99.90
20929;DHT22;21895;47.072;15.132;2022-11-20T08:05:08;5.00;99.90
20929;DHT22;21895;47.072;15.132;2022-11-20T08:07:39;5.10;99.90
20929;DHT22;21895;47.072;15.132;2022-11-20T08:10:08;5.10;99.90
20929;DHT22;21895;47.072;15.132;2022-11-20T08:12:36;5.10;99.90
20929;DHT22;21895;47.072;15.132;2022-11-20T08:15:28;5.10;99.90
20929;DHT22;21895;47.072;15.132;2022-11-20T08:18:05;5.20;99.90
20929;DHT22;21895;47.072;15.132;2022-11-20T08:20:56;5.20;99.90
20929;DHT22;21895;47.072;15.132;2022-11-20T08:23:23;5.30;99.90
20929;DHT22;21895;47.072;15.132;2022-11-20T08:25:50;5.30;99.90
20929;DHT22;21895;47.072;15.132;2022-11-20T08:28:17;5.30;99.90
20929;DHT22;21895;47.072;15.132;2022-11-20T08:30:47;5.30;99.90
20929;DHT22;21895;47.072;15.132;2022-11-20T08:33:17;5.30;99.90
20929;DHT22;21895;47.072;15.132;2022-11-20T08:35:44;5.50;99.90
20929;DHT22;21895;47.072;15.132;2022-11-20T08:38:11;5.50;99.90
20929;DHT22;21895;47.072;15.132;2022-11-20T08:40:37;5.70;99.90
20929;DHT22;21895;47.072;15.132;2022-11-20T08:43:04;5.70;99.90
20929;DHT22;21895;47.072;15.132;2022-11-20T08:45:30;5.70;99.90
20929;DHT22;21895;47.072;15.132;2022-11-20T08:48:01;5.70;99.90
20929;DHT22;21895;47.072;15.132;2022-11-20T08:50:29;5.70;99.90
20929;DHT22;21895;47.072;15.132;2022-11-20T08:53:05;5.80;99.90
20929;DHT22;21895;47.072;15.132;2022-11-20T08:55:31;5.80;99.90
20929;DHT22;21895;47.072;15.132;2022-11-20T08:58:02;5.90;99.90
20929;DHT22;21895;47.072;15.132;2022-11-20T09:00:29;6.10;99.90
20929;DHT22;21895;47.072;15.132;2022-11-20T09:02:55;6.10;99.90
20929;DHT22;21895;47.072;15.132;2022-11-20T09:05:23;6.20;99.90
20929;DHT22;21895;47.072;15.132;2022-11-20T09:07:49;6.20;99.90
20929;DHT22;21895;47.072;15.132;2022-11-20T09:10:16;6.30;99.90
20929;DHT22;21895;47.072;15.132;2022-11-20T09:12:50;6.30;99.90
20929;DHT22;21895;47.072;15.132;2022-11-20T09:15:17;6.40;99.90
20929;DHT22;21895;47.072;15.132;2022-11-20T09:17:54;6.40;99.90
20929;DHT22;21895;47.072;15.132;2022-11-20T09:20:22;6.40;99.90
20929;DHT22;21895;47.072;15.132;2022-11-20T09:22:49;6.50;99.90
20929;DHT22;21895;47.072;15.132;2022-11-20T09:25:15;6.60;99.90
20929;DHT22;21895;47.072;15.132;2022-11-20T09:27:42;6.70;99.90
20929;DHT22;21895;47.072;15.132;2022-11-20T09:30:10;6.70;99.90
20929;DHT22;21895;47.072;15.132;2022-11-20T09:32:41;6.70;99.90
20929;DHT22;21895;47.072;15.132;2022-11-20T09:35:08;6.90;99.90
20929;DHT22;21895;47.072;15.132;2022-11-20T09:37:36;6.90;99.90
20929;DHT22;21895;47.072;15.132;2022-11-20T09:40:03;7.00;99.90
20929;DHT22;21895;47.072;15.132;2022-11-20T09:47:01;7.20;99.90
20929;DHT22;21895;47.072;15.132;2022-11-20T09:50:16;7.40;99.90
20929;DHT22;21895;47.072;15.132;2022-11-20T09:57:58;7.40;99.90
20929;DHT22;21895;47.072;15.132;2022-11-20T10:00:27;7.70;99.90
20929;DHT22;21895;47.072;15.132;2022-11-20T10:04:04;7.80;99.90
20929;DHT22;21895;47.072;15.132;2022-11-20T10:06:50;7.90;99.90
20929;DHT22;21895;47.072;15.132;2022-11-20T10:09:56;8.10;99.90
20929;DHT22;21895;47.072;15.132;2022-11-20T10:18:53;8.50;99.90
20929;DHT22;21895;47.072;15.132;2022-11-20T10:25:05;8.90;99.90
20929;DHT22;21895;47.072;15.132;2022-11-20T10:32:26;8.90;99.90
20929;DHT22;21895;47.072;15.132;2022-11-20T10:35:06;9.00;99.90
20929;DHT22;21895;47.072;15.132;2022-11-20T10:37:49;9.10;99.90
20929;DHT22;21895;47.072;15.132;2022-11-20T10:41:25;9.00;99.90
20929;DHT22;21895;47.072;15.132;2022-11-20T10:44:03;9.20;99.90
20929;DHT22;21895;47.072;15.132;2022-11-20T10:46:40;9.20;99.90
20929;DHT22;21895;47.072;15.132;2022-11-20T10:49:16;9.10;99.90
20929;DHT22;21895;47.072;15.132;2022-11-20T10:51:59;9.20;99.90
20929;DHT22;21895;47.072;15.132;2022-11-20T10:56:47;9.20;99.90
20929;DHT22;21895;47.072;15.132;2022-11-20T11:01:18;9.10;99.90
20929;DHT22;21895;47.072;15.132;2022-11-20T11:03:50;9.10;99.90
20929;DHT22;21895;47.072;15.132;2022-11-20T11:06:51;9.20;99.90
20929;DHT22;21895;47.072;15.132;2022-11-20T11:09:29;9.20;99.90
20929;DHT22;21895;47.072;15.132;2022-11-20T11:12:06;9.10;99.90
20929;DHT22;21895;47.072;15.132;2022-11-20T11:14:48;9.10;99.90
20929;DHT22;21895;47.072;15.132;2022-11-20T11:17:32;9.00;99.90
20929;DHT22;21895;47.072;15.132;2022-11-20T11:20:14;8.90;99.90
20929;DHT22;21895;47.072;15.132;2022-11-20T11:23:01;8.90;99.90
20929;DHT22;21895;47.072;15.132;2022-11-20T11:25:34;8.90;99.90
20929;DHT22;21895;47.072;15.132;2022-11-20T11:28:25;8.90;99.90
20929;DHT22;21895;47.072;15.132;2022-11-20T11:30:54;9.00;99.90
20929;DHT22;21895;47.072;15.132;2022-11-20T11:33:25;9.00;99.90
20929;DHT22;21895;47.072;15.132;2022-11-20T11:35:59;9.00;99.90
20929;DHT22;21895;47.072;15.132;2022-11-20T11:38:40;9.20;99.90
20929;DHT22;21895;47.072;15.132;2022-11-20T11:41:16;9.30;99.90
20929;DHT22;21895;47.072;15.132;2022-11-20T11:43:56;9.50;99.90
20929;DHT22;21895;47.072;15.132;2022-11-20T11:47:00;9.70;99.90
20929;DHT22;21895;47.072;15.132;2022-11-20T11:49:28;9.80;99.90
20929;DHT22;21895;47.072;15.132;2022-11-20T11:52:17;9.80;99.90
20929;DHT22;21895;47.072;15.132;2022-11-20T11:54:55;9.80;99.90
20929;DHT22;21895;47.072;15.132;2022-11-20T11:59:22;9.80;99.90
20929;DHT22;21895;47.072;15.132;2022-11-20T12:02:03;10.00;99.90
20929;DHT22;21895;47.072;15.132;2022-11-20T12:05:22;9.80;99.90
20929;DHT22;21895;47.072;15.132;2022-11-20T12:08:09;9.80;99.90
20929;DHT22;21895;47.072;15.132;2022-11-20T12:10:59;9.70;99.90
20929;DHT22;21895;47.072;15.132;2022-11-20T12:17:03;9.40;99.90
20929;DHT22;21895;47.072;15.132;2022-11-20T12:19:33;9.50;99.90
20929;DHT22;21895;47.072;15.132;2022-11-20T12:22:29;9.40;99.90
20929;DHT22;21895;47.072;15.132;2022-11-20T12:33:18;9.10;99.90
20929;DHT22;21895;47.072;15.132;2022-11-20T12:39:41;9.30;99.90
20929;DHT22;21895;47.072;15.132;2022-11-20T12:42:44;9.30;99.90
20929;DHT22;21895;47.072;15.132;2022-11-20T12:48:50;9.30;99.90
20929;DHT22;21895;47.072;15.132;2022-11-20T12:53:17;9.40;99.90
20929;DHT22;21895;47.072;15.132;2022-11-20T12:58:38;9.60;99.90
20929;DHT22;21895;47.072;15.132;2022-11-20T13:08:56;9.80;99.90
20929;DHT22;21895;47.072;15.132;2022-11-20T13:11:34;9.90;99.90
20929;DHT22;21895;47.072;15.132;2022-11-20T13:15:26;9.90;99.90
20929;DHT22;21895;47.072;15.132;2022-11-20T13:18:04;9.90;99.90
20929;DHT22;21895;47.072;15.132;2022-11-20T13:20:35;10.00;99.90
20929;DHT22;21895;47.072;15.132;2022-11-20T13:23:06;10.10;99.90
20929;DHT22;21895;47.072;15.132;2022-11-20T13:25:38;10.10;99.90
20929;DHT22;21895;47.072;15.132;2022-11-20T13:28:28;10.20;99.90
20929;DHT22;21895;47.072;15.132;2022-11-20T13:30:57;10.10;99.90
20929;DHT22;21895;47.072;15.132;2022-11-20T13:33:35;10.20;99.90
20929;DHT22;21895;47.072;15.132;2022-11-20T13:36:06;10.20;99.90
20929;DHT22;21895;47.072;15.132;2022-11-20T13:38:49;10.20;99.90
20929;DHT22;21895;47.072;15.132;2022-11-20T13:41:59;9.90;99.90
20929;DHT22;21895;47.072;15.132;2022-11-20T13:44:35;9.80;99.90
20929;DHT22;21895;47.072;15.132;2022-11-20T13:47:23;9.80;99.90
20929;DHT22;21895;47.072;15.132;2022-11-20T13:49:53;9.60;99.90
20929;DHT22;21895;47.072;15.132;2022-11-20T13:54:04;9.60;99.90
20929;DHT22;21895;47.072;15.132;2022-11-20T13:57:01;9.50;99.90
20929;DHT22;21895;47.072;15.132;2022-11-20T14:00:16;9.50;99.90
20929;DHT22;21895;47.072;15.132;2022-11-20T14:08:37;9.30;99.90
20929;DHT22;21895;47.072;15.132;2022-11-20T14:11:25;9.10;99.90
20929;DHT22;21895;47.072;15.132;2022-11-20T14:14:16;8.90;99.90
20929;DHT22;21895;47.072;15.132;2022-11-20T14:16:45;8.70;99.90
20929;DHT22;21895;47.072;15.132;2022-11-20T14:19:27;8.60;99.90
20929;DHT22;21895;47.072;15.132;2022-11-20T14:22:16;8.60;99.90
20929;DHT22;21895;47.072;15.132;2022-11-20T14:24:45;8.40;99.90
20929;DHT22;21895;47.072;15.132;2022-11-20T14:27:18;8.40;99.90
20929;DHT22;21895;47.072;15.132;2022-11-20T14:29:49;8.30;99.90
20929;DHT22;21895;47.072;15.132;2022-11-20T14:32:18;8.20;99.90
20929;DHT22;21895;47.072;15.132;2022-11-20T14:34:49;8.20;99.90
20929;DHT22;21895;47.072;15.132;2022-11-20T14:37:26;8.10;99.90
20929;DHT22;21895;47.072;15.132;2022-11-20T14:39:58;8.00;99.90
20929;DHT22;21895;47.072;15.132;2022-11-20T14:42:26;7.90;99.90
20929;DHT22;21895;47.072;15.132;2022-11-20T14:44:58;7.90;99.90
20929;DHT22;21895;47.072;15.132;2022-11-20T14:47:27;7.80;99.90
20929;DHT22;21895;47.072;15.132;2022-11-20T14:49:57;7.70;99.90
20929;DHT22;21895;47.072;15.132;2022-11-20T14:52:27;7.60;99.90
20929;DHT22;21895;47.072;15.132;2022-11-20T14:54:55;7.50;99.90
20929;DHT22;21895;47.072;15.132;2022-11-20T14:57:32;7.40;99.90
20929;DHT22;21895;47.072;15.132;2022-11-20T15:00:32;7.20;99.90
20929;DHT22;21895;47.072;15.132;2022-11-20T15:03:00;7.10;99.90
20929;DHT22;21895;47.072;15.132;2022-11-20T15:05:48;7.00;99.90
20929;DHT22;21895;47.072;15.132;2022-11-20T15:08:16;6.90;99.90
20929;DHT22;21895;47.072;15.132;2022-11-20T15:10:48;6.80;99.90
20929;DHT22;21895;47.072;15.132;2022-11-20T15:16:21;6.40;99.90
20929;DHT22;21895;47.072;15.132;2022-11-20T15:18:49;6.30;99.90
20929;DHT22;21895;47.072;15.132;2022-11-20T15:21:18;6.20;99.90
20929;DHT22;21895;47.072;15.132;2022-11-20T15:23:47;6.10;99.90
20929;DHT22;21895;47.072;15.132;2022-11-20T15:26:18;6.10;99.90
20929;DHT22;21895;47.072;15.132;2022-11-20T15:28:49;6.00;99.90
20929;DHT22;21895;47.072;15.132;2022-11-20T15:31:18;5.90;99.90
20929;DHT22;21895;47.072;15.132;2022-11-20T15:33:48;5.80;99.90
20929;DHT22;21895;47.072;15.132;2022-11-20T15:36:15;5.70;99.90
20929;DHT22;21895;47.072;15.132;2022-11-20T15:38:41;5.60;99.90
20929;DHT22;21895;47.072;15.132;2022-11-20T15:41:08;5.50;99.90
20929;DHT22;21895;47.072;15.132;2022-11-20T15:43:36;5.50;99.90
20929;DHT22;21895;47.072;15.132;2022-11-20T15:46:06;5.40;99.90
20929;DHT22;21895;47.072;15.132;2022-11-20T15:48:42;5.20;99.90
20929;DHT22;21895;47.072;15.132;2022-11-20T15:51:36;5.30;99.90
20929;DHT22;21895;47.072;15.132;2022-11-20T15:54:13;5.30;99.90
20929;DHT22;21895;47.072;15.132;2022-11-20T15:56:40;5.30;99.90
20929;DHT22;21895;47.072;15.132;2022-11-20T15:59:07;5.20;99.90
20929;DHT22;21895;47.072;15.132;2022-11-20T16:01:34;5.10;99.90
20929;DHT22;21895;47.072;15.132;2022-11-20T16:04:01;5.10;99.90
20929;DHT22;21895;47.072;15.132;2022-11-20T16:06:27;4.90;99.90
20929;DHT22;21895;47.072;15.132;2022-11-20T16:08:54;4.80;99.90
20929;DHT22;21895;47.072;15.132;2022-11-20T16:11:20;4.80;99.90
20929;DHT22;21895;47.072;15.132;2022-11-20T16:13:47;4.80;99.90
20929;DHT22;21895;47.072;15.132;2022-11-20T16:16:35;4.80;99.90
20929;DHT22;21895;47.072;15.132;2022-11-20T16:19:02;4.70;99.90
20929;DHT22;21895;47.072;15.132;2022-11-20T16:21:29;4.70;99.90
20929;DHT22;21895;47.072;15.132;2022-11-20T16:24:04;4.70;99.90
20929;DHT22;21895;47.072;15.132;2022-11-20T16:26:32;4.50;99.90
20929;DHT22;21895;47.072;15.132;2022-11-20T16:29:01;4.40;99.90
20929;DHT22;21895;47.072;15.132;2022-11-20T16:31:29;4.40;99.90
20929;DHT22;21895;47.072;15.132;2022-11-20T16:33:58;4.40;99.90
20929;DHT22;21895;47.072;15.132;2022-11-20T16:36:27;4.40;99.90
20929;DHT22;21895;47.072;15.132;2022-11-20T16:38:56;4.40;99.90
20929;DHT22;21895;47.072;15.132;2022-11-20T16:41:26;4.40;99.90
20929;DHT22;21895;47.072;15.132;2022-11-20T16:44:00;4.30;99.90
20929;DHT22;21895;47.072;15.132;2022-11-20T16:46:30;4.30;99.90
20929;DHT22;21895;47.072;15.132;2022-11-20T16:49:02;4.40;99.90
20929;DHT22;21895;47.072;15.132;2022-11-20T16:51:34;4.40;99.90
20929;DHT22;21895;47.072;15.132;2022-11-20T16:54:03;4.40;99.90
20929;DHT22;21895;47.072;15.132;2022-11-20T16:56:34;4.30;99.90
20929;DHT22;21895;47.072;15.132;2022-11-20T16:59:01;4.40;99.90
20929;DHT22;21895;47.072;15.132;2022-11-20T17:01:29;4.40;99.90
20929;DHT22;21895;47.072;15.132;2022-11-20T17:04:06;4.50;99.90
20929;DHT22;21895;47.072;15.132;2022-11-20T17:06:34;4.70;99.90
20929;DHT22;21895;47.072;15.132;2022-11-20T17:09:03;4.80;99.90
20929;DHT22;21895;47.072;15.132;2022-11-20T17:11:30;4.90;99.90
20929;DHT22;21895;47.072;15.132;2022-11-20T17:13:58;5.00;99.90
20929;DHT22;21895;47.072;15.132;2022-11-20T17:16:25;5.10;99.90
20929;DHT22;21895;47.072;15.132;2022-11-20T17:18:57;5.10;99.90
20929;DHT22;21895;47.072;15.132;2022-11-20T17:21:33;5.20;99.90
20929;DHT22;21895;47.072;15.132;2022-11-20T17:24:06;5.30;99.90